Terminal Aerodrome Forecast
Issued by NWS Missoula, MT

Home | Current Version | Previous Version | Text Only | Print | Product List | Glossary On
Versions: 1 2 3 4 5 6 7 8 9 10 11 12 13 14 15 16 17 18 19 20 21 22
272
FTUS45 KMSO 032320
TAFGPI
TAF
KGPI 032320Z 0400/0424 16006KT P6SM VCSH OVC050
     FM040700 18007KT 4SM -SN BR BKN015 OVC030
     FM041600 22010KT 2SM -SN BR BKN007 OVC020
     FM042200 30010KT P6SM VCSH SCT050=

USA.gov is the U.S. government's official web portal to all federal, state and local government web resources and services.